sensor_id;sensor_type;location;lat;lon;timestamp;temperature;humidity
44823;DHT22;51097;51.984;5.650;2023-04-01T00:02:06;13.40;99.90
44823;DHT22;51097;51.984;5.650;2023-04-01T00:04:32;13.60;99.90
44823;DHT22;51097;51.984;5.650;2023-04-01T00:06:58;13.50;99.90
44823;DHT22;51097;51.984;5.650;2023-04-01T00:09:24;13.60;99.90
44823;DHT22;51097;51.984;5.650;2023-04-01T00:11:50;13.60;99.90
44823;DHT22;51097;51.984;5.650;2023-04-01T00:14:16;13.60;99.90
44823;DHT22;51097;51.984;5.650;2023-04-01T00:16:41;13.70;99.90
44823;DHT22;51097;51.984;5.650;2023-04-01T00:19:07;13.80;99.90
44823;DHT22;51097;51.984;5.650;2023-04-01T00:21:32;13.80;99.90
44823;DHT22;51097;51.984;5.650;2023-04-01T00:23:58;13.90;99.90
44823;DHT22;51097;51.984;5.650;2023-04-01T00:26:24;13.80;99.90
44823;DHT22;51097;51.984;5.650;2023-04-01T00:28:50;13.80;99.90
44823;DHT22;51097;51.984;5.650;2023-04-01T00:31:16;13.80;99.90
44823;DHT22;51097;51.984;5.650;2023-04-01T00:33:41;13.80;99.90
44823;DHT22;51097;51.984;5.650;2023-04-01T00:36:11;13.70;99.90
44823;DHT22;51097;51.984;5.650;2023-04-01T00:38:37;13.80;99.90
44823;DHT22;51097;51.984;5.650;2023-04-01T00:41:03;13.80;99.90
44823;DHT22;51097;51.984;5.650;2023-04-01T00:43:29;13.80;99.90
44823;DHT22;51097;51.984;5.650;2023-04-01T00:45:55;13.80;99.90
44823;DHT22;51097;51.984;5.650;2023-04-01T00:48:30;13.80;99.90
44823;DHT22;51097;51.984;5.650;2023-04-01T00:51:01;13.70;99.90
44823;DHT22;51097;51.984;5.650;2023-04-01T00:53:29;13.70;99.90
44823;DHT22;51097;51.984;5.650;2023-04-01T00:56:16;13.80;99.90
44823;DHT22;51097;51.984;5.650;2023-04-01T00:58:46;13.70;99.90
44823;DHT22;51097;51.984;5.650;2023-04-01T01:01:14;13.70;99.90
44823;DHT22;51097;51.984;5.650;2023-04-01T01:03:39;13.70;99.90
44823;DHT22;51097;51.984;5.650;2023-04-01T01:06:10;13.60;99.90
44823;DHT22;51097;51.984;5.650;2023-04-01T01:08:52;13.80;99.90
44823;DHT22;51097;51.984;5.650;2023-04-01T01:11:48;13.90;99.90
44823;DHT22;51097;51.984;5.650;2023-04-01T01:25:48;13.70;99.90
44823;DHT22;51097;51.984;5.650;2023-04-01T01:31:44;13.80;99.90
44823;DHT22;51097;51.984;5.650;2023-04-01T01:36:41;13.70;99.90
44823;DHT22;51097;51.984;5.650;2023-04-01T01:39:08;13.80;99.90
44823;DHT22;51097;51.984;5.650;2023-04-01T01:41:36;13.60;99.90
44823;DHT22;51097;51.984;5.650;2023-04-01T01:44:07;13.70;99.90
44823;DHT22;51097;51.984;5.650;2023-04-01T01:46:33;13.60;99.90
44823;DHT22;51097;51.984;5.650;2023-04-01T01:49:00;13.60;99.90
44823;DHT22;51097;51.984;5.650;2023-04-01T01:51:27;13.50;99.90
44823;DHT22;51097;51.984;5.650;2023-04-01T01:53:53;13.60;99.90
44823;DHT22;51097;51.984;5.650;2023-04-01T01:56:22;13.50;99.90
44823;DHT22;51097;51.984;5.650;2023-04-01T01:58:52;13.50;99.90
44823;DHT22;51097;51.984;5.650;2023-04-01T02:01:20;13.50;99.90
44823;DHT22;51097;51.984;5.650;2023-04-01T02:03:50;13.60;99.90
44823;DHT22;51097;51.984;5.650;2023-04-01T02:06:19;13.50;99.90
44823;DHT22;51097;51.984;5.650;2023-04-01T02:08:52;13.50;99.90
44823;DHT22;51097;51.984;5.650;2023-04-01T02:11:26;13.50;99.90
44823;DHT22;51097;51.984;5.650;2023-04-01T02:13:58;13.50;99.90
44823;DHT22;51097;51.984;5.650;2023-04-01T02:16:38;13.40;99.90
44823;DHT22;51097;51.984;5.650;2023-04-01T02:19:07;13.20;99.90
44823;DHT22;51097;51.984;5.650;2023-04-01T02:21:35;13.40;99.90
44823;DHT22;51097;51.984;5.650;2023-04-01T02:24:04;13.40;99.90
44823;DHT22;51097;51.984;5.650;2023-04-01T02:26:31;13.30;99.90
44823;DHT22;51097;51.984;5.650;2023-04-01T02:28:57;13.30;99.90
44823;DHT22;51097;51.984;5.650;2023-04-01T02:31:25;13.40;99.90
44823;DHT22;51097;51.984;5.650;2023-04-01T02:33:51;13.20;99.90
44823;DHT22;51097;51.984;5.650;2023-04-01T02:36:17;13.20;99.90
44823;DHT22;51097;51.984;5.650;2023-04-01T02:38:44;13.30;99.90
44823;DHT22;51097;51.984;5.650;2023-04-01T02:41:11;13.30;99.90
44823;DHT22;51097;51.984;5.650;2023-04-01T02:43:36;13.40;99.90
44823;DHT22;51097;51.984;5.650;2023-04-01T02:46:02;13.30;99.90
44823;DHT22;51097;51.984;5.650;2023-04-01T02:48:28;13.50;99.90
44823;DHT22;51097;51.984;5.650;2023-04-01T02:50:54;13.40;99.90
44823;DHT22;51097;51.984;5.650;2023-04-01T02:53:20;13.50;99.90
44823;DHT22;51097;51.984;5.650;2023-04-01T02:55:45;13.40;99.90
44823;DHT22;51097;51.984;5.650;2023-04-01T02:58:11;13.40;99.90
44823;DHT22;51097;51.984;5.650;2023-04-01T03:00:37;13.30;99.90
44823;DHT22;51097;51.984;5.650;2023-04-01T03:03:03;13.30;99.90
44823;DHT22;51097;51.984;5.650;2023-04-01T03:05:29;13.30;99.90
44823;DHT22;51097;51.984;5.650;2023-04-01T03:07:55;13.20;99.90
44823;DHT22;51097;51.984;5.650;2023-04-01T03:10:21;13.10;99.90
44823;DHT22;51097;51.984;5.650;2023-04-01T03:12:46;13.20;99.90
44823;DHT22;51097;51.984;5.650;2023-04-01T03:15:13;13.20;99.90
44823;DHT22;51097;51.984;5.650;2023-04-01T03:17:40;13.30;99.90
44823;DHT22;51097;51.984;5.650;2023-04-01T03:20:07;13.20;99.90
44823;DHT22;51097;51.984;5.650;2023-04-01T03:22:34;13.30;99.90
44823;DHT22;51097;51.984;5.650;2023-04-01T03:25:04;13.20;99.90
44823;DHT22;51097;51.984;5.650;2023-04-01T03:27:29;13.20;99.90
44823;DHT22;51097;51.984;5.650;2023-04-01T03:29:55;13.20;99.90
44823;DHT22;51097;51.984;5.650;2023-04-01T03:32:21;13.20;99.90
44823;DHT22;51097;51.984;5.650;2023-04-01T03:34:46;13.20;99.90
44823;DHT22;51097;51.984;5.650;2023-04-01T03:37:12;13.00;99.90
44823;DHT22;51097;51.984;5.650;2023-04-01T03:39:38;13.00;99.90
44823;DHT22;51097;51.984;5.650;2023-04-01T03:42:04;13.10;99.90
44823;DHT22;51097;51.984;5.650;2023-04-01T03:44:33;13.10;99.90
44823;DHT22;51097;51.984;5.650;2023-04-01T03:46:59;13.10;99.90
44823;DHT22;51097;51.984;5.650;2023-04-01T03:49:25;13.20;99.90
44823;DHT22;51097;51.984;5.650;2023-04-01T03:51:51;13.10;99.90
44823;DHT22;51097;51.984;5.650;2023-04-01T03:54:17;13.30;99.90
44823;DHT22;51097;51.984;5.650;2023-04-01T03:56:43;13.20;99.90
44823;DHT22;51097;51.984;5.650;2023-04-01T03:59:09;13.20;99.90
44823;DHT22;51097;51.984;5.650;2023-04-01T04:01:35;13.20;99.90
44823;DHT22;51097;51.984;5.650;2023-04-01T04:04:00;13.10;99.90
44823;DHT22;51097;51.984;5.650;2023-04-01T04:06:26;13.10;99.90
44823;DHT22;51097;51.984;5.650;2023-04-01T04:08:52;13.10;99.90
44823;DHT22;51097;51.984;5.650;2023-04-01T04:11:19;13.10;99.90
44823;DHT22;51097;51.984;5.650;2023-04-01T04:13:45;13.00;99.90
44823;DHT22;51097;51.984;5.650;2023-04-01T04:16:13;13.00;99.90
44823;DHT22;51097;51.984;5.650;2023-04-01T04:18:38;13.10;99.90
44823;DHT22;51097;51.984;5.650;2023-04-01T04:21:04;13.10;99.90
44823;DHT22;51097;51.984;5.650;2023-04-01T04:23:30;13.10;99.90
44823;DHT22;51097;51.984;5.650;2023-04-01T04:26:12;13.20;99.90
44823;DHT22;51097;51.984;5.650;2023-04-01T04:28:38;13.20;99.90
44823;DHT22;51097;51.984;5.650;2023-04-01T04:31:04;13.30;99.90
44823;DHT22;51097;51.984;5.650;2023-04-01T04:33:30;13.20;99.90
44823;DHT22;51097;51.984;5.650;2023-04-01T04:35:57;13.20;99.90
44823;DHT22;51097;51.984;5.650;2023-04-01T04:38:24;13.30;99.90
44823;DHT22;51097;51.984;5.650;2023-04-01T04:40:50;13.30;99.90
44823;DHT22;51097;51.984;5.650;2023-04-01T04:43:17;13.30;99.90
44823;DHT22;51097;51.984;5.650;2023-04-01T04:45:43;13.20;99.90
44823;DHT22;51097;51.984;5.650;2023-04-01T04:48:12;13.30;99.90
44823;DHT22;51097;51.984;5.650;2023-04-01T04:50:41;13.20;99.90
44823;DHT22;51097;51.984;5.650;2023-04-01T04:53:10;13.20;99.90
44823;DHT22;51097;51.984;5.650;2023-04-01T04:55:35;13.40;99.90
44823;DHT22;51097;51.984;5.650;2023-04-01T04:58:01;13.30;99.90
44823;DHT22;51097;51.984;5.650;2023-04-01T05:00:27;13.30;99.90
44823;DHT22;51097;51.984;5.650;2023-04-01T05:02:52;13.30;99.90
44823;DHT22;51097;51.984;5.650;2023-04-01T05:05:18;13.50;99.90
44823;DHT22;51097;51.984;5.650;2023-04-01T05:07:43;13.40;99.90
44823;DHT22;51097;51.984;5.650;2023-04-01T05:10:09;13.40;99.90
44823;DHT22;51097;51.984;5.650;2023-04-01T05:12:35;13.50;99.90
44823;DHT22;51097;51.984;5.650;2023-04-01T05:15:08;13.50;99.90
44823;DHT22;51097;51.984;5.650;2023-04-01T05:17:33;13.50;99.90
44823;DHT22;51097;51.984;5.650;2023-04-01T05:19:59;13.60;99.90
44823;DHT22;51097;51.984;5.650;2023-04-01T05:22:25;13.60;99.90
44823;DHT22;51097;51.984;5.650;2023-04-01T05:24:50;13.60;99.90
44823;DHT22;51097;51.984;5.650;2023-04-01T05:27:16;13.60;99.90
44823;DHT22;51097;51.984;5.650;2023-04-01T05:29:42;13.60;99.90
44823;DHT22;51097;51.984;5.650;2023-04-01T05:32:07;13.60;99.90
44823;DHT22;51097;51.984;5.650;2023-04-01T05:34:33;13.60;99.90
44823;DHT22;51097;51.984;5.650;2023-04-01T05:36:58;13.60;99.90
44823;DHT22;51097;51.984;5.650;2023-04-01T05:39:24;13.60;99.90
44823;DHT22;51097;51.984;5.650;2023-04-01T05:41:50;13.60;99.90
44823;DHT22;51097;51.984;5.650;2023-04-01T05:44:16;13.50;99.90
44823;DHT22;51097;51.984;5.650;2023-04-01T05:46:41;13.60;99.90
44823;DHT22;51097;51.984;5.650;2023-04-01T05:49:07;13.70;99.90
44823;DHT22;51097;51.984;5.650;2023-04-01T05:51:33;13.70;99.90
44823;DHT22;51097;51.984;5.650;2023-04-01T05:53:58;13.70;99.90
44823;DHT22;51097;51.984;5.650;2023-04-01T05:56:24;13.70;99.90
44823;DHT22;51097;51.984;5.650;2023-04-01T05:58:54;13.70;99.90
44823;DHT22;51097;51.984;5.650;2023-04-01T06:01:19;13.80;99.90
44823;DHT22;51097;51.984;5.650;2023-04-01T06:03:45;13.80;99.90
44823;DHT22;51097;51.984;5.650;2023-04-01T06:06:25;13.80;99.90
44823;DHT22;51097;51.984;5.650;2023-04-01T06:08:52;13.80;99.90
44823;DHT22;51097;51.984;5.650;2023-04-01T06:11:31;13.60;99.90
44823;DHT22;51097;51.984;5.650;2023-04-01T06:20:12;13.70;99.90
44823;DHT22;51097;51.984;5.650;2023-04-01T06:25:42;13.60;99.90
44823;DHT22;51097;51.984;5.650;2023-04-01T06:31:10;13.60;99.90
44823;DHT22;51097;51.984;5.650;2023-04-01T06:34:02;13.70;99.90
44823;DHT22;51097;51.984;5.650;2023-04-01T06:39:29;13.80;99.90
44823;DHT22;51097;51.984;5.650;2023-04-01T06:45:06;13.90;99.90
44823;DHT22;51097;51.984;5.650;2023-04-01T06:53:12;13.90;99.90
44823;DHT22;51097;51.984;5.650;2023-04-01T06:55:47;13.90;99.90
44823;DHT22;51097;51.984;5.650;2023-04-01T06:58:39;14.00;99.90
44823;DHT22;51097;51.984;5.650;2023-04-01T07:01:11;14.00;99.90
44823;DHT22;51097;51.984;5.650;2023-04-01T07:08:53;14.10;99.90
44823;DHT22;51097;51.984;5.650;2023-04-01T07:11:26;14.00;99.90
44823;DHT22;51097;51.984;5.650;2023-04-01T07:14:22;13.90;99.90
44823;DHT22;51097;51.984;5.650;2023-04-01T07:19:52;14.00;99.90
44823;DHT22;51097;51.984;5.650;2023-04-01T07:24:53;14.00;99.90
44823;DHT22;51097;51.984;5.650;2023-04-01T07:27:19;14.10;99.90
44823;DHT22;51097;51.984;5.650;2023-04-01T07:29:45;14.00;99.90
44823;DHT22;51097;51.984;5.650;2023-04-01T07:43:23;14.00;99.90
44823;DHT22;51097;51.984;5.650;2023-04-01T07:51:29;14.00;99.90
44823;DHT22;51097;51.984;5.650;2023-04-01T08:04:59;14.10;99.90
44823;DHT22;51097;51.984;5.650;2023-04-01T08:10:18;14.10;99.90
44823;DHT22;51097;51.984;5.650;2023-04-01T08:19:03;14.30;99.90
44823;DHT22;51097;51.984;5.650;2023-04-01T08:21:24;14.30;99.90
44823;DHT22;51097;51.984;5.650;2023-04-01T08:23:56;14.40;99.90
44823;DHT22;51097;51.984;5.650;2023-04-01T08:26:45;14.30;99.90
44823;DHT22;51097;51.984;5.650;2023-04-01T08:29:26;14.30;99.90
44823;DHT22;51097;51.984;5.650;2023-04-01T08:32:00;14.30;99.90
44823;DHT22;51097;51.984;5.650;2023-04-01T08:34:38;14.30;99.90
44823;DHT22;51097;51.984;5.650;2023-04-01T08:37:20;14.40;99.90
44823;DHT22;51097;51.984;5.650;2023-04-01T08:39:54;14.40;99.90
44823;DHT22;51097;51.984;5.650;2023-04-01T08:43:12;14.50;99.90
44823;DHT22;51097;51.984;5.650;2023-04-01T08:53:48;14.50;99.90
44823;DHT22;51097;51.984;5.650;2023-04-01T08:57:03;14.40;99.90
44823;DHT22;51097;51.984;5.650;2023-04-01T08:59:47;14.50;99.90
44823;DHT22;51097;51.984;5.650;2023-04-01T09:08:17;14.50;99.90
44823;DHT22;51097;51.984;5.650;2023-04-01T09:16:07;14.60;99.90
44823;DHT22;51097;51.984;5.650;2023-04-01T09:29:54;14.90;99.90
44823;DHT22;51097;51.984;5.650;2023-04-01T09:32:46;14.90;99.90
44823;DHT22;51097;51.984;5.650;2023-04-01T09:35:30;15.00;99.90
44823;DHT22;51097;51.984;5.650;2023-04-01T09:38:20;15.00;99.90
44823;DHT22;51097;51.984;5.650;2023-04-01T09:40:59;15.20;99.90
44823;DHT22;51097;51.984;5.650;2023-04-01T09:46:23;15.20;99.90
44823;DHT22;51097;51.984;5.650;2023-04-01T09:52:49;15.40;99.90
44823;DHT22;51097;51.984;5.650;2023-04-01T09:55:04;15.50;99.90
44823;DHT22;51097;51.984;5.650;2023-04-01T10:04:23;15.50;99.90
44823;DHT22;51097;51.984;5.650;2023-04-01T10:12:55;15.70;99.90
44823;DHT22;51097;51.984;5.650;2023-04-01T10:21:02;16.00;99.90
44823;DHT22;51097;51.984;5.650;2023-04-01T10:29:14;16.50;99.90
44823;DHT22;51097;51.984;5.650;2023-04-01T10:48:36;17.30;99.90
44823;DHT22;51097;51.984;5.650;2023-04-01T10:51:16;17.50;99.90
44823;DHT22;51097;51.984;5.650;2023-04-01T10:54:17;17.50;99.90
44823;DHT22;51097;51.984;5.650;2023-04-01T10:56:51;17.70;99.90
44823;DHT22;51097;51.984;5.650;2023-04-01T11:07:48;17.90;99.90
44823;DHT22;51097;51.984;5.650;2023-04-01T11:22:29;17.80;99.90
44823;DHT22;51097;51.984;5.650;2023-04-01T11:28:08;17.90;99.90
44823;DHT22;51097;51.984;5.650;2023-04-01T11:36:51;17.70;99.90
44823;DHT22;51097;51.984;5.650;2023-04-01T11:42:24;17.70;99.90
44823;DHT22;51097;51.984;5.650;2023-04-01T11:54:10;17.60;99.90
44823;DHT22;51097;51.984;5.650;2023-04-01T11:57:00;17.50;99.90
44823;DHT22;51097;51.984;5.650;2023-04-01T11:59:51;17.30;99.90
44823;DHT22;51097;51.984;5.650;2023-04-01T12:05:32;17.40;99.90
44823;DHT22;51097;51.984;5.650;2023-04-01T12:14:16;17.20;99.90
44823;DHT22;51097;51.984;5.650;2023-04-01T12:19:43;17.20;99.90
44823;DHT22;51097;51.984;5.650;2023-04-01T12:22:48;17.00;99.90
44823;DHT22;51097;51.984;5.650;2023-04-01T12:44:41;17.20;99.90
44823;DHT22;51097;51.984;5.650;2023-04-01T12:53:06;17.30;99.90
44823;DHT22;51097;51.984;5.650;2023-04-01T12:55:43;17.30;99.90
44823;DHT22;51097;51.984;5.650;2023-04-01T12:58:44;17.30;99.90
44823;DHT22;51097;51.984;5.650;2023-04-01T13:01:36;17.40;99.90
44823;DHT22;51097;51.984;5.650;2023-04-01T13:10:25;17.40;99.90
44823;DHT22;51097;51.984;5.650;2023-04-01T13:18:38;17.40;99.90
44823;DHT22;51097;51.984;5.650;2023-04-01T13:29:57;17.60;99.90
44823;DHT22;51097;51.984;5.650;2023-04-01T13:41:04;17.40;99.90
44823;DHT22;51097;51.984;5.650;2023-04-01T13:43:50;17.30;99.90
44823;DHT22;51097;51.984;5.650;2023-04-01T13:46:50;17.30;99.90
44823;DHT22;51097;51.984;5.650;2023-04-01T13:49:37;17.20;99.90
44823;DHT22;51097;51.984;5.650;2023-04-01T13:55:14;17.00;99.90
44823;DHT22;51097;51.984;5.650;2023-04-01T14:00:32;16.90;99.90
44823;DHT22;51097;51.984;5.650;2023-04-01T14:09:44;16.80;99.90
44823;DHT22;51097;51.984;5.650;2023-04-01T14:12:43;16.80;99.90
44823;DHT22;51097;51.984;5.650;2023-04-01T14:15:32;16.80;99.90
44823;DHT22;51097;51.984;5.650;2023-04-01T14:18:22;16.80;99.90
44823;DHT22;51097;51.984;5.650;2023-04-01T14:23:59;16.80;99.90
44823;DHT22;51097;51.984;5.650;2023-04-01T14:35:18;16.70;99.90
44823;DHT22;51097;51.984;5.650;2023-04-01T14:37:59;16.70;99.90
44823;DHT22;51097;51.984;5.650;2023-04-01T14:40:52;16.50;99.90
44823;DHT22;51097;51.984;5.650;2023-04-01T14:43:32;16.60;99.90
44823;DHT22;51097;51.984;5.650;2023-04-01T14:48:56;16.50;99.90
44823;DHT22;51097;51.984;5.650;2023-04-01T14:51:30;16.40;99.90
44823;DHT22;51097;51.984;5.650;2023-04-01T14:54:30;16.50;99.90
44823;DHT22;51097;51.984;5.650;2023-04-01T14:57:23;16.60;99.90
44823;DHT22;51097;51.984;5.650;2023-04-01T15:00:15;16.60;99.90
44823;DHT22;51097;51.984;5.650;2023-04-01T15:02:59;16.60;99.90
44823;DHT22;51097;51.984;5.650;2023-04-01T15:08:29;16.60;99.90
44823;DHT22;51097;51.984;5.650;2023-04-01T15:14:03;16.50;99.90
44823;DHT22;51097;51.984;5.650;2023-04-01T15:16:55;16.30;99.90
44823;DHT22;51097;51.984;5.650;2023-04-01T15:22:39;16.30;99.90
44823;DHT22;51097;51.984;5.650;2023-04-01T15:25:34;16.40;99.90
44823;DHT22;51097;51.984;5.650;2023-04-01T15:42:05;16.30;99.90
44823;DHT22;51097;51.984;5.650;2023-04-01T16:01:34;15.90;99.90
44823;DHT22;51097;51.984;5.650;2023-04-01T16:20:51;15.30;99.90
44823;DHT22;51097;51.984;5.650;2023-04-01T16:36:53;15.10;99.90
44823;DHT22;51097;51.984;5.650;2023-04-01T16:42:34;15.10;99.90
44823;DHT22;51097;51.984;5.650;2023-04-01T16:47:40;14.70;99.90
44823;DHT22;51097;51.984;5.650;2023-04-01T16:50:13;14.70;99.90
44823;DHT22;51097;51.984;5.650;2023-04-01T16:55:49;14.80;99.90
44823;DHT22;51097;51.984;5.650;2023-04-01T17:00:55;14.70;99.90
44823;DHT22;51097;51.984;5.650;2023-04-01T17:03:29;14.70;99.90
44823;DHT22;51097;51.984;5.650;2023-04-01T17:06:28;14.50;99.90
44823;DHT22;51097;51.984;5.650;2023-04-01T17:14:30;14.00;99.90
44823;DHT22;51097;51.984;5.650;2023-04-01T17:19:46;14.00;99.90
44823;DHT22;51097;51.984;5.650;2023-04-01T17:25:56;13.90;99.90
44823;DHT22;51097;51.984;5.650;2023-04-01T17:28:18;13.90;99.90
44823;DHT22;51097;51.984;5.650;2023-04-01T17:47:25;13.60;99.90
44823;DHT22;51097;51.984;5.650;2023-04-01T17:58:20;13.50;99.90
44823;DHT22;51097;51.984;5.650;2023-04-01T18:04:10;13.50;99.90
44823;DHT22;51097;51.984;5.650;2023-04-01T18:28:32;12.70;99.90
44823;DHT22;51097;51.984;5.650;2023-04-01T18:31:08;12.80;99.90
44823;DHT22;51097;51.984;5.650;2023-04-01T18:34:06;12.80;99.90
44823;DHT22;51097;51.984;5.650;2023-04-01T18:36:40;13.00;99.90
44823;DHT22;51097;51.984;5.650;2023-04-01T18:39:35;13.10;99.90
44823;DHT22;51097;51.984;5.650;2023-04-01T18:45:14;12.80;99.90
44823;DHT22;51097;51.984;5.650;2023-04-01T18:47:47;12.60;99.90
44823;DHT22;51097;51.984;5.650;2023-04-01T18:53:24;12.50;99.90
44823;DHT22;51097;51.984;5.650;2023-04-01T18:56:03;12.40;99.90
44823;DHT22;51097;51.984;5.650;2023-04-01T19:01:12;12.40;99.90
44823;DHT22;51097;51.984;5.650;2023-04-01T19:03:51;12.20;99.90
44823;DHT22;51097;51.984;5.650;2023-04-01T19:06:28;12.30;99.90
44823;DHT22;51097;51.984;5.650;2023-04-01T19:08:54;12.40;99.90
44823;DHT22;51097;51.984;5.650;2023-04-01T19:14:05;12.20;99.90
44823;DHT22;51097;51.984;5.650;2023-04-01T19:16:52;12.10;99.90
44823;DHT22;51097;51.984;5.650;2023-04-01T19:19:44;12.00;99.90
44823;DHT22;51097;51.984;5.650;2023-04-01T19:24:59;11.90;99.90
44823;DHT22;51097;51.984;5.650;2023-04-01T19:27:42;11.80;99.90
44823;DHT22;51097;51.984;5.650;2023-04-01T19:34:05;11.80;99.90
44823;DHT22;51097;51.984;5.650;2023-04-01T19:38:40;11.80;99.90
44823;DHT22;51097;51.984;5.650;2023-04-01T19:46:27;11.90;99.90
44823;DHT22;51097;51.984;5.650;2023-04-01T19:51:50;11.80;99.90
44823;DHT22;51097;51.984;5.650;2023-04-01T19:54:33;11.80;99.90
44823;DHT22;51097;51.984;5.650;2023-04-01T19:57:26;11.80;99.90
44823;DHT22;51097;51.984;5.650;2023-04-01T20:17:01;11.30;99.90
44823;DHT22;51097;51.984;5.650;2023-04-01T20:21:59;11.30;99.90
44823;DHT22;51097;51.984;5.650;2023-04-01T20:24:45;11.50;99.90
44823;DHT22;51097;51.984;5.650;2023-04-01T20:46:51;11.10;99.90
44823;DHT22;51097;51.984;5.650;2023-04-01T21:10:52;11.00;99.90
44823;DHT22;51097;51.984;5.650;2023-04-01T21:21:25;10.90;99.90
44823;DHT22;51097;51.984;5.650;2023-04-01T21:43:24;10.50;99.90
44823;DHT22;51097;51.984;5.650;2023-04-01T21:51:43;10.80;99.90
44823;DHT22;51097;51.984;5.650;2023-04-01T22:05:34;10.50;99.90
44823;DHT22;51097;51.984;5.650;2023-04-01T22:08:08;10.50;99.90
44823;DHT22;51097;51.984;5.650;2023-04-01T22:10:51;10.70;99.90
44823;DHT22;51097;51.984;5.650;2023-04-01T22:18:39;10.70;99.90
44823;DHT22;51097;51.984;5.650;2023-04-01T22:21:27;10.60;99.90
44823;DHT22;51097;51.984;5.650;2023-04-01T22:26:48;10.60;99.90
44823;DHT22;51097;51.984;5.650;2023-04-01T22:29:35;10.70;99.90
44823;DHT22;51097;51.984;5.650;2023-04-01T22:32:05;10.50;99.90
44823;DHT22;51097;51.984;5.650;2023-04-01T22:34:57;10.40;99.90
44823;DHT22;51097;51.984;5.650;2023-04-01T22:40:52;10.30;99.90
44823;DHT22;51097;51.984;5.650;2023-04-01T22:43:39;10.20;99.90
44823;DHT22;51097;51.984;5.650;2023-04-01T22:51:47;10.00;99.90
44823;DHT22;51097;51.984;5.650;2023-04-01T22:54:29;10.10;99.90
44823;DHT22;51097;51.984;5.650;2023-04-01T22:59:41;10.30;99.90
44823;DHT22;51097;51.984;5.650;2023-04-01T23:02:39;10.30;99.90
44823;DHT22;51097;51.984;5.650;2023-04-01T23:05:12;10.40;99.90
44823;DHT22;51097;51.984;5.650;2023-04-01T23:10:43;10.50;99.90
44823;DHT22;51097;51.984;5.650;2023-04-01T23:13:17;10.40;99.90
44823;DHT22;51097;51.984;5.650;2023-04-01T23:15:44;10.20;99.90
44823;DHT22;51097;51.984;5.650;2023-04-01T23:18:15;10.20;99.90
44823;DHT22;51097;51.984;5.650;2023-04-01T23:28:59;10.10;99.90
44823;DHT22;51097;51.984;5.650;2023-04-01T23:31:34;10.00;99.90
44823;DHT22;51097;51.984;5.650;2023-04-01T23:36:49;9.90;99.90
44823;DHT22;51097;51.984;5.650;2023-04-01T23:39:29;9.80;99.90
44823;DHT22;51097;51.984;5.650;2023-04-01T23:42:06;9.80;99.90
44823;DHT22;51097;51.984;5.650;2023-04-01T23:44:33;9.80;99.90
44823;DHT22;51097;51.984;5.650;2023-04-01T23:47:00;9.80;99.90
44823;DHT22;51097;51.984;5.650;2023-04-01T23:49:33;9.70;99.90
44823;DHT22;51097;51.984;5.650;2023-04-01T23:52:13;9.80;99.90
44823;DHT22;51097;51.984;5.650;2023-04-01T23:54:44;9.70;99.90
44823;DHT22;51097;51.984;5.650;2023-04-01T23:57:17;9.90;99.90
